createdAt,value
2023-05-04T03:57:46.229Z,3.60
2023-05-04T04:00:48.823Z,3.97
2023-05-04T04:03:51.475Z,4.50
2023-05-04T04:06:54.082Z,3.70
2023-05-04T04:09:56.618Z,4.32
2023-05-04T04:12:58.816Z,4.60
2023-05-04T04:16:01.357Z,5.07
2023-05-04T04:19:03.519Z,4.90
2023-05-04T04:22:05.965Z,5.00
2023-05-04T04:25:08.897Z,5.20
2023-05-04T04:28:11.487Z,5.00
2023-05-04T04:31:13.656Z,5.20
2023-05-04T04:34:16.250Z,5.05
2023-05-04T04:37:18.432Z,4.95
2023-05-04T04:40:22.465Z,4.62
2023-05-04T04:43:24.669Z,4.82
2023-05-04T04:46:27.957Z,4.85
2023-05-04T04:49:30.118Z,4.15
2023-05-04T04:52:33.470Z,4.05
2023-05-04T04:55:35.593Z,4.03
2023-05-04T04:58:38.034Z,4.00
2023-05-04T05:01:42.668Z,3.62
2023-05-04T05:04:45.111Z,3.58
2023-05-04T05:07:47.628Z,3.85
2023-05-04T05:10:50.052Z,3.20
2023-05-04T05:13:52.187Z,2.83
2023-05-04T05:16:54.698Z,3.22
2023-05-04T05:19:56.971Z,2.60
2023-05-04T05:22:59.607Z,2.50
2023-05-04T05:26:03.350Z,2.72
2023-05-04T05:29:05.940Z,2.85
2023-05-04T05:32:08.046Z,2.80
2023-05-04T05:35:10.559Z,2.60
2023-05-04T05:38:12.757Z,3.00
2023-05-04T05:41:15.360Z,2.75
2023-05-04T05:44:17.501Z,3.00
2023-05-04T05:47:20.041Z,2.50
2023-05-04T05:50:23.443Z,2.97
2023-05-04T05:53:26.231Z,2.97
2023-05-04T05:56:28.356Z,2.95
2023-05-04T05:59:30.725Z,3.28
2023-05-04T06:02:32.888Z,2.80
2023-05-04T06:05:35.335Z,3.17
2023-05-04T06:08:37.629Z,3.17
2023-05-04T06:11:40.063Z,2.97
2023-05-04T06:14:42.227Z,2.78
2023-05-04T06:17:44.743Z,3.05
2023-05-04T06:20:46.883Z,2.67
2023-05-04T06:23:49.228Z,2.90
2023-05-04T06:26:51.469Z,2.80
2023-05-04T06:29:53.883Z,3.03
2023-05-04T06:32:56.016Z,2.78
2023-05-04T06:35:58.457Z,2.97
2023-05-04T06:39:00.535Z,2.92
2023-05-04T06:42:03.438Z,3.60
2023-05-04T06:45:10.423Z,2.97
2023-05-04T06:48:13.805Z,3.08
2023-05-04T06:51:16.250Z,2.90
2023-05-04T06:54:18.674Z,3.00
2023-05-04T06:57:20.807Z,2.87
2023-05-04T07:00:23.770Z,3.45
2023-05-04T07:03:26.888Z,3.03
2023-05-04T07:06:29.762Z,3.05
2023-05-04T07:09:32.112Z,3.20
2023-05-04T07:12:34.633Z,2.67
2023-05-04T07:15:37.054Z,2.92
2023-05-04T07:18:40.328Z,3.30
2023-05-04T07:21:42.712Z,3.50
2023-05-04T07:24:45.088Z,3.35
2023-05-04T07:27:49.404Z,3.00
2023-05-04T07:30:54.505Z,2.70
2023-05-04T07:33:57.147Z,3.33
2023-05-04T07:36:59.525Z,3.60
2023-05-04T07:40:02.936Z,3.67
2023-05-04T07:43:05.731Z,3.70
2023-05-04T07:46:09.397Z,3.37
2023-05-04T07:49:13.512Z,3.30
2023-05-04T07:52:16.443Z,3.70
2023-05-04T07:55:19.063Z,3.75
2023-05-04T07:58:21.308Z,3.53
2023-05-04T08:01:24.637Z,3.80
2023-05-04T08:04:27.483Z,3.45
2023-05-04T08:07:29.575Z,3.50
2023-05-04T08:10:36.633Z,3.60
2023-05-04T08:13:39.838Z,3.90
2023-05-04T08:16:42.316Z,3.60
2023-05-04T08:19:44.543Z,4.22
2023-05-04T08:22:48.914Z,4.07
2023-05-04T08:25:52.365Z,3.33
2023-05-04T08:29:06.011Z,3.75
2023-05-04T08:32:09.337Z,3.70
2023-05-04T08:35:11.869Z,4.00
2023-05-04T08:38:14.043Z,3.70
2023-05-04T08:41:16.661Z,3.85
2023-05-04T08:44:19.581Z,3.85
2023-05-04T08:47:22.232Z,3.75
2023-05-04T08:50:24.824Z,4.40
2023-05-04T08:53:28.067Z,3.70
2023-05-04T08:56:30.622Z,3.70
2023-05-04T08:59:33.443Z,3.62
2023-05-04T09:02:37.335Z,3.87
2023-05-04T09:05:42.601Z,3.50
2023-05-04T09:08:44.788Z,3.40
2023-05-04T09:11:47.890Z,4.03
2023-05-04T09:14:50.436Z,3.42
2023-05-04T09:18:05.430Z,3.62
2023-05-04T09:21:07.889Z,4.05
2023-05-04T09:24:12.472Z,3.58
2023-05-04T09:27:16.251Z,3.55
2023-05-04T09:30:21.136Z,3.08
2023-05-04T09:33:27.386Z,3.67
2023-05-04T09:36:29.817Z,3.35
2023-05-04T09:39:31.946Z,3.03
2023-05-04T09:42:34.363Z,2.70
2023-05-04T09:45:44.606Z,2.87
2023-05-04T09:48:52.295Z,2.83
2023-05-04T09:51:55.048Z,3.10
2023-05-04T09:54:58.802Z,2.97
2023-05-04T09:58:01.211Z,2.90
2023-05-04T10:01:04.863Z,2.92
2023-05-04T10:04:07.352Z,3.28
2023-05-04T10:07:09.606Z,3.33
2023-05-04T10:10:14.518Z,3.22
2023-05-04T10:13:17.445Z,3.20
2023-05-04T10:16:41.766Z,3.40
2023-05-04T10:19:59.184Z,3.28
2023-05-04T10:23:23.677Z,3.25
2023-05-04T10:26:40.666Z,3.37
2023-05-04T10:29:49.343Z,3.90
2023-05-04T10:32:59.336Z,3.60
2023-05-04T10:36:01.969Z,3.33
2023-05-04T10:39:05.892Z,3.58
2023-05-04T10:42:08.513Z,3.80
2023-05-04T10:45:10.957Z,4.18
2023-05-04T10:48:13.793Z,3.60
2023-05-04T10:51:26.592Z,3.70
2023-05-04T10:54:32.790Z,4.00
2023-05-04T10:57:35.398Z,4.18
2023-05-04T11:00:40.157Z,3.22
2023-05-04T11:03:42.692Z,3.55
2023-05-04T11:06:56.235Z,3.47
2023-05-04T11:09:59.642Z,3.10
2023-05-04T11:13:05.531Z,3.50
2023-05-04T11:16:08.231Z,3.95
2023-05-04T11:19:12.555Z,3.75
2023-05-04T11:22:15.499Z,3.80
2023-05-04T11:25:27.079Z,3.95
2023-05-04T11:28:36.622Z,3.85
2023-05-04T11:31:39.780Z,4.15
2023-05-04T11:34:46.183Z,3.80
2023-05-04T11:37:50.360Z,3.87
2023-05-04T11:40:52.476Z,3.80
2023-05-04T11:43:55.201Z,3.78
2023-05-04T11:46:57.391Z,4.18
2023-05-04T11:50:00.118Z,3.80
2023-05-04T11:53:12.172Z,4.05
2023-05-04T11:56:14.628Z,3.58
2023-05-04T11:59:16.924Z,3.60
2023-05-04T12:02:20.377Z,4.20
2023-05-04T12:05:22.952Z,4.28
2023-05-04T12:08:35.911Z,4.20
2023-05-04T12:11:40.605Z,3.90
2023-05-04T12:14:54.080Z,3.80
2023-05-04T12:17:59.642Z,4.03
2023-05-04T12:21:21.436Z,4.30
2023-05-04T12:24:25.011Z,4.12
2023-05-04T12:27:27.696Z,3.80
2023-05-04T12:30:30.575Z,3.78
2023-05-04T12:33:33.564Z,3.60
2023-05-04T12:36:36.047Z,4.25
2023-05-04T12:39:38.453Z,4.10
2023-05-04T12:42:42.264Z,4.22
2023-05-04T12:45:44.508Z,4.30
2023-05-04T12:48:47.008Z,4.25
2023-05-04T12:51:50.320Z,5.18
2023-05-04T12:54:52.692Z,5.18
2023-05-04T12:57:54.787Z,6.15
2023-05-04T13:00:58.040Z,5.07
2023-05-04T13:04:00.309Z,5.68
2023-05-04T13:07:02.844Z,5.12
2023-05-04T13:10:06.484Z,6.20
2023-05-04T13:13:09.134Z,5.68
2023-05-04T13:16:12.741Z,5.55
2023-05-04T13:19:15.292Z,4.80
2023-05-04T13:22:17.438Z,6.53
2023-05-04T13:25:19.828Z,6.28
2023-05-04T13:28:22.028Z,7.15
2023-05-04T13:31:24.558Z,5.75
2023-05-04T13:34:26.784Z,6.70
2023-05-04T13:37:29.150Z,5.80
2023-05-04T13:40:31.523Z,5.87
2023-05-04T13:43:33.898Z,6.85
2023-05-04T13:46:36.837Z,6.68
2023-05-04T13:49:39.772Z,6.87
2023-05-04T13:52:41.965Z,6.57
2023-05-04T13:55:44.368Z,6.75
2023-05-04T13:58:46.509Z,6.95
2023-05-04T14:01:49.044Z,5.93
2023-05-04T14:04:52.851Z,6.20
2023-05-04T14:07:55.058Z,6.72
2023-05-04T14:10:57.523Z,7.40
2023-05-04T14:13:59.671Z,6.72
2023-05-04T14:17:02.188Z,7.50
2023-05-04T14:20:05.807Z,6.80
2023-05-04T14:23:08.275Z,5.70
2023-05-04T14:26:11.466Z,5.80
2023-05-04T14:29:13.990Z,5.30
2023-05-04T14:32:16.297Z,5.62
2023-05-04T14:35:18.699Z,5.12
2023-05-04T14:38:21.038Z,5.03
2023-05-04T14:41:23.506Z,5.30
2023-05-04T14:44:27.826Z,5.25
2023-05-04T14:47:30.336Z,5.00
2023-05-04T14:50:32.786Z,5.18
2023-05-04T14:53:36.979Z,4.87
2023-05-04T14:56:40.788Z,5.12
2023-05-04T14:59:43.651Z,5.00
2023-05-04T15:02:45.818Z,4.95
2023-05-04T15:05:48.301Z,4.55
2023-05-04T15:08:50.661Z,5.20
